createdAt,value
2019-01-24T00:01:08.747Z,29.10
2019-01-24T00:03:36.934Z,30.57
2019-01-24T00:06:05.086Z,28.67
2019-01-24T00:08:33.255Z,29.47
2019-01-24T00:11:05.615Z,30.47
2019-01-24T00:13:33.796Z,30.27
2019-01-24T00:16:06.876Z,29.33
2019-01-24T00:18:34.945Z,28.60
2019-01-24T00:21:03.123Z,27.63
2019-01-24T00:23:31.709Z,27.47
2019-01-24T00:25:59.874Z,27.13
2019-01-24T00:28:29.116Z,28.00
2019-01-24T00:30:57.246Z,28.53
2019-01-24T00:33:25.416Z,29.57
2019-01-24T00:35:53.606Z,29.57
2019-01-24T00:38:22.389Z,29.07
2019-01-24T00:40:50.561Z,30.85
2019-01-24T00:43:19.029Z,29.92
2019-01-24T00:45:47.203Z,29.90
2019-01-24T00:48:15.389Z,30.27
2019-01-24T00:50:43.870Z,30.60
2019-01-24T00:53:12.056Z,32.97
2019-01-24T00:55:40.228Z,30.10
2019-01-24T00:58:08.792Z,29.47
2019-01-24T01:00:36.988Z,30.10
2019-01-24T01:03:05.670Z,29.47
2019-01-24T01:05:34.038Z,30.07
2019-01-24T01:08:02.216Z,30.87
2019-01-24T01:10:30.437Z,29.40
2019-01-24T01:12:58.818Z,29.57
2019-01-24T01:15:27.041Z,29.20
2019-01-24T01:17:55.574Z,31.40
2019-01-24T01:20:24.184Z,30.30
2019-01-24T01:22:52.682Z,30.37
2019-01-24T01:25:20.918Z,29.70
2019-01-24T01:27:51.096Z,29.47
2019-01-24T01:30:21.186Z,31.13
2019-01-24T01:32:49.459Z,28.63
2019-01-24T01:35:17.891Z,29.53
2019-01-24T01:37:46.028Z,28.87
2019-01-24T01:40:14.841Z,30.60
2019-01-24T01:42:43.759Z,29.57
2019-01-24T01:45:14.768Z,29.83
2019-01-24T01:47:42.927Z,29.97
2019-01-24T01:50:13.858Z,29.83
2019-01-24T01:52:42.418Z,30.93
2019-01-24T01:55:10.606Z,31.40
2019-01-24T01:57:39.080Z,29.80
2019-01-24T02:00:09.685Z,30.13
2019-01-24T02:02:38.165Z,29.20
2019-01-24T02:05:07.183Z,31.83
2019-01-24T02:07:36.676Z,30.37
2019-01-24T02:10:06.806Z,30.33
2019-01-24T02:12:35.376Z,31.10
2019-01-24T02:15:04.409Z,29.50
2019-01-24T02:17:33.589Z,31.23
2019-01-24T02:20:01.763Z,30.43
2019-01-24T02:22:29.935Z,30.73
2019-01-24T02:24:58.108Z,31.60
2019-01-24T02:27:26.291Z,30.17
2019-01-24T02:29:54.455Z,28.20
2019-01-24T02:32:22.922Z,30.97
2019-01-24T02:34:51.099Z,30.97
2019-01-24T02:37:19.286Z,29.97
2019-01-24T02:39:47.828Z,29.23
2019-01-24T02:42:17.992Z,30.53
2019-01-24T02:44:46.146Z,29.73
2019-01-24T02:47:15.398Z,28.65
2019-01-24T02:49:43.788Z,29.33
2019-01-24T02:52:12.973Z,31.30
2019-01-24T02:54:41.388Z,30.13
2019-01-24T02:57:11.003Z,29.57
2019-01-24T02:59:39.207Z,33.43
2019-01-24T03:02:11.694Z,30.80
2019-01-24T03:04:40.135Z,31.13
2019-01-24T03:07:08.326Z,31.70
2019-01-24T03:09:37.418Z,31.50
2019-01-24T03:12:05.583Z,32.67
2019-01-24T03:14:33.766Z,30.80
2019-01-24T03:17:01.990Z,33.70
2019-01-24T03:19:30.528Z,32.30
2019-01-24T03:21:58.690Z,31.23
2019-01-24T03:24:27.036Z,32.73
2019-01-24T03:26:55.721Z,31.00
2019-01-24T03:29:23.946Z,33.07
2019-01-24T03:31:52.468Z,32.73
2019-01-24T03:34:21.294Z,30.93
2019-01-24T03:36:49.555Z,32.90
2019-01-24T03:39:18.006Z,32.17
2019-01-24T03:41:46.217Z,30.53
2019-01-24T03:44:14.700Z,32.43
2019-01-24T03:46:42.880Z,34.97
2019-01-24T03:49:11.052Z,32.60
2019-01-24T03:51:39.516Z,34.10
2019-01-24T03:54:08.435Z,31.57
2019-01-24T03:56:36.604Z,34.93
2019-01-24T03:59:04.814Z,31.50
2019-01-24T04:01:33.039Z,32.77
2019-01-24T04:04:01.213Z,32.10
2019-01-24T04:06:35.275Z,36.60
2019-01-24T04:09:05.019Z,33.17
2019-01-24T04:11:33.222Z,33.00
2019-01-24T04:14:02.421Z,32.03
2019-01-24T04:16:30.598Z,34.80
2019-01-24T04:18:58.755Z,37.70
2019-01-24T04:21:28.013Z,37.10
2019-01-24T04:23:57.155Z,33.37
2019-01-24T04:26:25.717Z,32.77
2019-01-24T04:28:53.912Z,33.13
2019-01-24T04:31:22.103Z,31.40
2019-01-24T04:33:50.260Z,32.57
2019-01-24T04:36:18.493Z,32.23
2019-01-24T04:38:47.109Z,35.30
2019-01-24T04:41:15.758Z,37.23
2019-01-24T04:43:44.379Z,36.87
2019-01-24T04:46:13.261Z,35.63
2019-01-24T04:48:41.467Z,37.00
2019-01-24T04:51:10.653Z,36.17
2019-01-24T04:53:38.823Z,35.40
2019-01-24T04:56:06.986Z,35.67
2019-01-24T04:58:36.197Z,36.60
2019-01-24T05:01:04.416Z,35.70
2019-01-24T05:03:32.929Z,37.50
2019-01-24T05:06:01.150Z,37.43
2019-01-24T05:08:29.872Z,37.30
2019-01-24T05:10:58.249Z,36.17
2019-01-24T05:13:26.565Z,35.57
2019-01-24T05:15:55.759Z,35.63
2019-01-24T05:18:24.955Z,40.63
2019-01-24T05:20:54.551Z,40.50
2019-01-24T05:23:22.749Z,38.92
2019-01-24T05:25:51.962Z,38.23
2019-01-24T05:28:21.173Z,39.43
2019-01-24T05:30:51.361Z,38.27
2019-01-24T05:33:19.523Z,39.13
2019-01-24T05:35:48.277Z,38.75
2019-01-24T05:38:23.366Z,41.83
2019-01-24T05:40:51.603Z,39.70
2019-01-24T05:43:20.080Z,41.07
2019-01-24T05:45:48.280Z,44.83
2019-01-24T05:48:20.742Z,44.20
2019-01-24T05:50:49.327Z,44.80
2019-01-24T05:53:17.528Z,40.73
2019-01-24T05:55:45.678Z,40.13
2019-01-24T05:58:14.206Z,38.47
2019-01-24T06:00:51.445Z,39.20
2019-01-24T06:03:19.624Z,41.43
2019-01-24T06:05:48.084Z,40.30
2019-01-24T06:08:16.678Z,40.63
2019-01-24T06:10:45.555Z,39.60
2019-01-24T06:13:13.771Z,43.13
2019-01-24T06:15:42.628Z,44.73
2019-01-24T06:18:11.205Z,40.80
2019-01-24T06:20:39.401Z,42.17
2019-01-24T06:23:07.864Z,39.50
2019-01-24T06:25:36.054Z,40.43
2019-01-24T06:28:04.432Z,42.10
2019-01-24T06:30:32.610Z,41.73
2019-01-24T06:33:00.773Z,40.93
2019-01-24T06:35:29.482Z,39.73
2019-01-24T06:37:58.464Z,47.37
2019-01-24T06:40:27.036Z,44.67
2019-01-24T06:42:55.209Z,43.67
2019-01-24T06:45:23.471Z,47.80
2019-01-24T06:47:51.667Z,49.10
2019-01-24T06:50:19.843Z,48.07
2019-01-24T06:52:48.387Z,47.10
2019-01-24T06:55:25.354Z,44.07
2019-01-24T06:57:53.862Z,41.30
2019-01-24T07:00:23.476Z,43.27
2019-01-24T07:02:51.696Z,41.03
2019-01-24T07:05:20.225Z,48.13
2019-01-24T07:07:49.440Z,49.30
2019-01-24T07:10:18.835Z,47.80
2019-01-24T07:12:47.025Z,49.60
2019-01-24T07:15:17.734Z,49.20
2019-01-24T07:17:45.905Z,44.93
2019-01-24T07:20:14.374Z,46.57
2019-01-24T07:22:42.570Z,48.57
2019-01-24T07:25:13.289Z,43.27
2019-01-24T07:27:41.481Z,48.67
2019-01-24T07:30:11.534Z,45.23
2019-01-24T07:32:39.900Z,45.60
2019-01-24T07:35:10.301Z,46.43
2019-01-24T07:37:38.458Z,45.07
2019-01-24T07:40:07.145Z,47.70
2019-01-24T07:42:35.319Z,45.87
2019-01-24T07:45:03.508Z,43.63
2019-01-24T07:47:31.912Z,43.17
2019-01-24T07:50:00.041Z,43.93
2019-01-24T07:52:28.227Z,41.93
2019-01-24T07:54:56.761Z,43.47
2019-01-24T07:57:25.471Z,42.70
2019-01-24T07:59:53.647Z,41.87
2019-01-24T08:02:21.829Z,41.57
2019-01-24T08:04:50.297Z,46.33
2019-01-24T08:07:18.488Z,40.47
2019-01-24T08:09:47.904Z,42.20
2019-01-24T08:12:16.378Z,42.63
2019-01-24T08:14:44.595Z,44.80
2019-01-24T08:17:13.744Z,47.07
2019-01-24T08:19:41.920Z,46.53
2019-01-24T08:22:10.432Z,45.40
2019-01-24T08:24:38.574Z,47.80
2019-01-24T08:27:08.092Z,48.67
2019-01-24T08:29:37.304Z,46.23
2019-01-24T08:32:05.450Z,47.40
2019-01-24T08:34:40.621Z,43.73
2019-01-24T08:37:15.738Z,43.63
2019-01-24T08:39:48.384Z,43.50
2019-01-24T08:42:24.820Z,43.80
2019-01-24T08:44:55.116Z,49.48
2019-01-24T08:47:35.770Z,48.30
2019-01-24T08:50:08.437Z,47.37
2019-01-24T08:52:40.804Z,47.43
2019-01-24T08:55:15.399Z,47.43
2019-01-24T08:57:51.572Z,48.20
2019-01-24T09:00:21.859Z,49.80
2019-01-24T09:02:50.112Z,47.73
2019-01-24T09:05:18.306Z,43.20
2019-01-24T09:07:46.846Z,44.63
2019-01-24T09:10:18.687Z,43.40
2019-01-24T09:12:47.910Z,43.23
2019-01-24T09:15:16.070Z,43.63
2019-01-24T09:17:46.398Z,44.53
2019-01-24T09:20:16.992Z,64.27
2019-01-24T09:22:46.090Z,44.87
2019-01-24T09:25:15.439Z,45.53
2019-01-24T09:27:43.609Z,42.47
2019-01-24T09:30:14.667Z,41.13
2019-01-24T09:32:43.870Z,47.97
2019-01-24T09:35:12.043Z,45.13
2019-01-24T09:37:40.184Z,46.27
2019-01-24T09:40:09.894Z,43.63
2019-01-24T09:42:40.423Z,43.60
2019-01-24T09:45:17.008Z,41.87
2019-01-24T09:47:46.481Z,44.90
2019-01-24T09:50:19.379Z,40.03
2019-01-24T09:52:48.535Z,42.20
2019-01-24T09:55:17.390Z,43.93
2019-01-24T09:57:47.743Z,42.60
2019-01-24T10:00:23.218Z,46.47
2019-01-24T10:02:54.488Z,41.33
2019-01-24T10:05:23.776Z,42.47
2019-01-24T10:07:52.988Z,43.70
2019-01-24T10:10:24.488Z,42.40
2019-01-24T10:12:53.442Z,41.83
2019-01-24T10:15:31.279Z,41.17
2019-01-24T10:17:59.452Z,40.50
2019-01-24T10:20:33.744Z,45.23
2019-01-24T10:23:34.526Z,44.30
2019-01-24T10:26:16.853Z,41.93
2019-01-24T10:29:12.669Z,40.93
2019-01-24T10:31:53.045Z,41.77
2019-01-24T10:34:28.166Z,44.70
2019-01-24T10:36:56.432Z,45.80
2019-01-24T10:39:29.691Z,45.20
2019-01-24T10:41:58.904Z,43.60
2019-01-24T10:44:34.675Z,41.33
2019-01-24T10:47:04.011Z,42.60
2019-01-24T10:49:34.319Z,42.10
2019-01-24T10:52:03.542Z,41.83
2019-01-24T10:54:47.223Z,43.08
2019-01-24T10:57:26.875Z,41.53
2019-01-24T10:59:58.546Z,44.13
2019-01-24T11:02:32.684Z,41.20
2019-01-24T11:05:01.166Z,44.10
2019-01-24T11:07:31.382Z,43.83
2019-01-24T11:10:10.222Z,47.13
2019-01-24T11:12:37.528Z,43.67
2019-01-24T11:15:07.543Z,41.17
2019-01-24T11:17:36.779Z,43.37
2019-01-24T11:20:06.766Z,42.77
2019-01-24T11:22:40.787Z,46.93
2019-01-24T11:25:19.521Z,40.07
2019-01-24T11:27:49.751Z,44.50
2019-01-24T11:30:24.544Z,44.93
2019-01-24T11:32:52.784Z,47.67
2019-01-24T11:35:23.968Z,46.60
2019-01-24T11:37:53.896Z,46.33
2019-01-24T11:40:28.735Z,42.30
2019-01-24T11:43:02.805Z,47.00
2019-01-24T11:45:36.709Z,40.88
2019-01-24T11:48:05.107Z,44.30
2019-01-24T11:50:33.295Z,42.40
2019-01-24T11:53:01.476Z,41.67
2019-01-24T11:55:30.674Z,41.88
2019-01-24T11:58:05.120Z,43.10
2019-01-24T12:00:43.863Z,44.23
2019-01-24T12:03:12.481Z,44.73
2019-01-24T12:05:43.416Z,46.03
2019-01-24T12:08:12.676Z,44.77
2019-01-24T12:10:40.815Z,45.57
2019-01-24T12:13:12.219Z,41.47
2019-01-24T12:15:44.901Z,43.20
2019-01-24T12:18:13.138Z,48.90
2019-01-24T12:20:41.606Z,42.70
2019-01-24T12:23:09.755Z,39.93
2019-01-24T12:25:37.947Z,40.17
2019-01-24T12:28:07.145Z,38.80
2019-01-24T12:30:36.134Z,39.07
2019-01-24T12:33:11.383Z,39.97
2019-01-24T12:35:39.591Z,39.83
2019-01-24T12:38:09.790Z,36.33
2019-01-24T12:40:38.445Z,35.43
2019-01-24T12:43:06.983Z,40.23
2019-01-24T12:45:41.172Z,39.03
2019-01-24T12:48:17.598Z,37.83
2019-01-24T12:50:45.791Z,38.40
2019-01-24T12:53:16.046Z,38.10
2019-01-24T12:55:44.733Z,38.03
2019-01-24T12:58:14.223Z,38.20
2019-01-24T13:00:48.818Z,32.75
2019-01-24T13:03:18.402Z,35.83
2019-01-24T13:05:47.901Z,36.10
2019-01-24T13:08:16.598Z,33.93
2019-01-24T13:10:44.782Z,34.20
2019-01-24T13:13:12.951Z,31.07
2019-01-24T13:15:41.190Z,31.13
2019-01-24T13:18:09.297Z,32.47
2019-01-24T13:20:38.526Z,28.17
2019-01-24T13:23:06.672Z,30.57
2019-01-24T13:25:35.098Z,31.43
2019-01-24T13:28:03.298Z,34.63
2019-01-24T13:30:32.725Z,33.73
2019-01-24T13:33:00.900Z,32.90
2019-01-24T13:35:29.369Z,30.92
2019-01-24T13:37:57.561Z,32.10
2019-01-24T13:40:28.196Z,32.73
2019-01-24T13:42:56.665Z,33.10
2019-01-24T13:45:35.272Z,34.20
2019-01-24T13:48:09.698Z,32.90
2019-01-24T13:50:42.171Z,31.33
2019-01-24T13:53:10.390Z,32.80
2019-01-24T13:55:39.895Z,33.42
2019-01-24T13:58:08.284Z,31.43
2019-01-24T14:00:38.393Z,32.53
2019-01-24T14:03:13.787Z,30.83
2019-01-24T14:05:44.026Z,31.30
2019-01-24T14:08:12.219Z,31.23
2019-01-24T14:10:41.569Z,31.30
2019-01-24T14:13:09.775Z,30.10
2019-01-24T14:15:38.949Z,30.63
2019-01-24T14:18:07.168Z,33.10
2019-01-24T14:20:43.415Z,32.47
2019-01-24T14:23:11.954Z,33.77
2019-01-24T14:25:46.480Z,33.70
2019-01-24T14:28:14.739Z,33.00
2019-01-24T14:30:42.976Z,31.40
2019-01-24T14:33:11.180Z,31.90
2019-01-24T14:35:40.404Z,31.17
2019-01-24T14:38:08.609Z,30.10
2019-01-24T14:40:37.839Z,31.27
2019-01-24T14:43:06.306Z,30.83
2019-01-24T14:45:34.451Z,32.17
2019-01-24T14:48:03.710Z,30.93
2019-01-24T14:50:38.528Z,32.70
2019-01-24T14:53:06.230Z,32.17
2019-01-24T14:55:35.452Z,29.47
2019-01-24T14:58:05.683Z,30.60
2019-01-24T15:00:48.536Z,33.20
2019-01-24T15:03:17.829Z,34.63
2019-01-24T15:05:46.059Z,33.83
2019-01-24T15:08:14.923Z,34.53
2019-01-24T15:10:42.708Z,34.30
2019-01-24T15:13:12.972Z,33.55
2019-01-24T15:15:47.248Z,34.33
2019-01-24T15:18:17.562Z,34.53
2019-01-24T15:20:47.715Z,31.77
2019-01-24T15:23:16.903Z,34.07
2019-01-24T15:25:53.499Z,32.40
2019-01-24T15:28:23.067Z,33.53
2019-01-24T15:30:51.263Z,35.47
2019-01-24T15:33:19.436Z,32.97
2019-01-24T15:35:47.635Z,31.43
2019-01-24T15:38:21.701Z,33.17
2019-01-24T15:40:50.893Z,36.00
2019-01-24T15:43:19.076Z,35.10
2019-01-24T15:45:47.248Z,34.23
2019-01-24T15:48:15.465Z,35.67
2019-01-24T15:50:43.579Z,35.73
2019-01-24T15:53:12.026Z,35.27
2019-01-24T15:55:40.301Z,33.47
2019-01-24T15:58:08.533Z,30.67
2019-01-24T16:00:44.145Z,33.80
2019-01-24T16:03:12.644Z,34.67
2019-01-24T16:05:47.889Z,33.83
2019-01-24T16:08:37.412Z,35.93
2019-01-24T16:11:11.494Z,32.50
2019-01-24T16:13:39.651Z,35.63
2019-01-24T16:16:21.348Z,34.60
2019-01-24T16:19:01.833Z,35.93
2019-01-24T16:22:07.163Z,36.17
2019-01-24T16:24:42.286Z,33.93
2019-01-24T16:27:13.667Z,36.35
2019-01-24T16:29:48.262Z,37.67
2019-01-24T16:32:23.700Z,41.13
2019-01-24T16:35:01.243Z,41.30
2019-01-24T16:37:40.819Z,36.80
2019-01-24T16:40:54.224Z,36.93
2019-01-24T16:43:23.466Z,35.50
2019-01-24T16:45:55.917Z,36.93
2019-01-24T16:48:28.712Z,34.87
2019-01-24T16:51:04.244Z,39.83
2019-01-24T16:53:31.000Z,37.77
2019-01-24T16:56:03.529Z,40.60
2019-01-24T16:58:31.745Z,40.03
2019-01-24T17:01:08.602Z,40.63
2019-01-24T17:03:38.135Z,43.87
2019-01-24T17:06:06.293Z,42.83
2019-01-24T17:08:34.435Z,41.97
2019-01-24T17:11:02.662Z,43.90
2019-01-24T17:13:31.440Z,47.87
2019-01-24T17:15:59.876Z,43.50
2019-01-24T17:18:28.096Z,48.43
2019-01-24T17:20:56.490Z,48.73
2019-01-24T17:23:24.709Z,49.67
2019-01-24T17:25:54.177Z,52.30
2019-01-24T17:28:22.504Z,53.97
2019-01-24T17:30:50.721Z,52.73
2019-01-24T17:33:20.219Z,52.20
2019-01-24T17:35:48.409Z,52.17
2019-01-24T17:38:23.877Z,52.13
2019-01-24T17:40:48.934Z,49.40
2019-01-24T17:43:17.131Z,49.60
2019-01-24T17:45:45.263Z,49.70
2019-01-24T17:48:32.827Z,49.47
2019-01-24T17:51:01.242Z,50.80
2019-01-24T17:53:29.494Z,51.33
2019-01-24T17:55:57.635Z,49.40
2019-01-24T17:58:25.851Z,49.67
2019-01-24T18:00:54.298Z,48.77
2019-01-24T18:03:22.447Z,49.93
2019-01-24T18:05:51.694Z,50.40
2019-01-24T18:08:19.878Z,48.60
2019-01-24T18:10:49.042Z,51.17
2019-01-24T18:13:17.607Z,52.63
2019-01-24T18:15:46.629Z,56.90
2019-01-24T18:18:15.524Z,57.43
2019-01-24T18:20:44.583Z,55.27
2019-01-24T18:23:19.946Z,55.23
2019-01-24T18:25:47.074Z,56.40
2019-01-24T18:28:15.272Z,56.27
2019-01-24T18:30:43.472Z,54.90
2019-01-24T18:33:11.838Z,54.30
2019-01-24T18:35:40.580Z,54.40
2019-01-24T18:38:08.840Z,50.60
2019-01-24T18:40:38.081Z,53.73
2019-01-24T18:43:11.959Z,53.13
2019-01-24T18:45:44.752Z,54.77
2019-01-24T18:48:12.961Z,57.53
2019-01-24T18:50:41.142Z,55.83
2019-01-24T18:53:11.579Z,54.97
2019-01-24T18:55:37.858Z,52.47
2019-01-24T18:58:07.331Z,54.13
2019-01-24T19:00:40.575Z,54.00
2019-01-24T19:03:09.399Z,53.50
2019-01-24T19:05:40.742Z,51.63
2019-01-24T19:08:08.976Z,56.53
2019-01-24T19:10:37.161Z,56.57
2019-01-24T19:13:06.726Z,52.67
2019-01-24T19:15:34.917Z,51.63
2019-01-24T19:18:03.108Z,51.13
2019-01-24T19:20:31.245Z,51.43
2019-01-24T19:22:59.420Z,51.27
2019-01-24T19:25:28.642Z,52.80
2019-01-24T19:27:57.136Z,55.03
2019-01-24T19:30:27.553Z,52.07
2019-01-24T19:32:55.720Z,50.73
2019-01-24T19:35:23.875Z,53.80
2019-01-24T19:37:52.059Z,54.90
2019-01-24T19:40:21.864Z,50.23
2019-01-24T19:42:50.927Z,53.13
2019-01-24T19:45:20.669Z,53.00
2019-01-24T19:47:48.839Z,53.00
2019-01-24T19:50:19.258Z,52.17
2019-01-24T19:52:47.712Z,56.90
2019-01-24T19:55:15.908Z,52.70
2019-01-24T19:57:44.425Z,53.63
2019-01-24T20:00:15.463Z,53.50
2019-01-24T20:02:43.631Z,57.47
2019-01-24T20:05:11.947Z,56.53
2019-01-24T20:07:40.156Z,52.87
2019-01-24T20:10:12.093Z,55.77
2019-01-24T20:12:40.300Z,54.90
2019-01-24T20:15:11.599Z,57.87
2019-01-24T20:17:40.747Z,58.63
2019-01-24T20:20:11.234Z,52.87
2019-01-24T20:22:39.499Z,55.47
2019-01-24T20:25:10.450Z,55.90
2019-01-24T20:27:38.649Z,51.97
2019-01-24T20:30:09.322Z,54.30
2019-01-24T20:32:38.773Z,52.83
2019-01-24T20:35:11.517Z,56.43
2019-01-24T20:37:40.661Z,53.83
2019-01-24T20:40:09.796Z,56.30
2019-01-24T20:42:38.774Z,51.88
2019-01-24T20:45:07.050Z,53.83
2019-01-24T20:47:35.206Z,51.50
2019-01-24T20:50:03.535Z,56.37
2019-01-24T20:52:31.774Z,56.37
2019-01-24T20:54:59.944Z,54.70
2019-01-24T20:57:28.495Z,56.07
2019-01-24T20:59:56.729Z,54.00
2019-01-24T21:02:24.874Z,50.90
2019-01-24T21:04:54.636Z,57.20
2019-01-24T21:07:21.535Z,60.80
2019-01-24T21:09:50.001Z,52.33
2019-01-24T21:12:18.213Z,59.17
2019-01-24T21:14:46.908Z,59.80
2019-01-24T21:17:17.608Z,55.57
2019-01-24T21:19:45.778Z,55.00
2019-01-24T21:22:14.895Z,53.97
2019-01-24T21:24:43.726Z,52.20
2019-01-24T21:27:11.922Z,54.77
2019-01-24T21:29:40.102Z,54.67
2019-01-24T21:32:09.311Z,51.60
2019-01-24T21:34:37.460Z,53.63
2019-01-24T21:37:05.667Z,55.27
2019-01-24T21:39:33.872Z,51.57
2019-01-24T21:42:02.254Z,57.70
2019-01-24T21:44:30.522Z,53.27
2019-01-24T21:46:58.732Z,58.25
2019-01-24T21:49:27.227Z,52.27
2019-01-24T21:51:55.370Z,53.03
2019-01-24T21:54:23.587Z,56.03
2019-01-24T21:56:51.736Z,52.17
2019-01-24T21:59:19.997Z,52.70
2019-01-24T22:01:48.199Z,53.83
2019-01-24T22:04:16.631Z,54.37
2019-01-24T22:06:45.866Z,57.07
2019-01-24T22:09:14.114Z,54.40
2019-01-24T22:11:42.309Z,51.57
2019-01-24T22:14:10.492Z,51.23
2019-01-24T22:16:39.685Z,56.20
2019-01-24T22:19:07.862Z,54.27
2019-01-24T22:21:36.038Z,53.13
2019-01-24T22:24:04.846Z,49.83
2019-01-24T22:26:32.998Z,49.03
2019-01-24T22:29:01.183Z,49.70
2019-01-24T22:31:29.734Z,53.97
2019-01-24T22:33:57.933Z,48.57
2019-01-24T22:36:26.090Z,47.57
2019-01-24T22:38:54.321Z,51.00
2019-01-24T22:41:22.816Z,48.60
2019-01-24T22:43:51.628Z,52.80
2019-01-24T22:46:20.233Z,47.87
2019-01-24T22:48:48.899Z,50.10
2019-01-24T22:51:17.078Z,51.73
2019-01-24T22:53:45.274Z,53.73
2019-01-24T22:56:13.425Z,52.07
2019-01-24T22:58:41.598Z,47.47
2019-01-24T23:01:32.698Z,49.27
2019-01-24T23:04:08.680Z,49.07
2019-01-24T23:06:40.788Z,47.77
2019-01-24T23:09:10.645Z,52.20
2019-01-24T23:11:39.289Z,50.60
2019-01-24T23:14:07.598Z,53.20
2019-01-24T23:16:35.896Z,47.93
2019-01-24T23:19:05.351Z,48.87
2019-01-24T23:21:33.561Z,52.87
2019-01-24T23:24:02.031Z,50.30
2019-01-24T23:26:32.413Z,49.53
2019-01-24T23:29:00.539Z,46.87
2019-01-24T23:31:29.753Z,46.23
2019-01-24T23:33:58.179Z,49.27
2019-01-24T23:36:26.405Z,48.80
2019-01-24T23:38:54.548Z,47.30
2019-01-24T23:41:23.913Z,50.17
2019-01-24T23:43:53.973Z,49.50
2019-01-24T23:46:23.474Z,48.77
2019-01-24T23:48:52.682Z,46.83
2019-01-24T23:51:20.934Z,50.43
2019-01-24T23:53:49.428Z,50.13
2019-01-24T23:56:17.638Z,46.63
2019-01-24T23:58:48.299Z,45.67
